createdAt,value
2024-03-02T00:01:12.371Z,7.36
2024-03-02T00:03:39.344Z,7.41
2024-03-02T00:06:06.416Z,7.54
2024-03-02T00:08:33.082Z,7.49
2024-03-02T00:11:01.106Z,7.51
2024-03-02T00:13:28.195Z,7.51
2024-03-02T00:15:56.276Z,7.51
2024-03-02T00:18:27.441Z,7.47
2024-03-02T00:20:55.475Z,7.45
2024-03-02T00:23:22.195Z,7.50
2024-03-02T00:25:50.236Z,7.54
2024-03-02T00:28:20.176Z,7.68
2024-03-02T00:30:56.903Z,7.54
2024-03-02T00:33:28.371Z,7.67
2024-03-02T00:35:55.352Z,7.59
2024-03-02T00:38:24.394Z,7.59
2024-03-02T00:40:51.064Z,7.68
2024-03-02T00:43:49.127Z,7.70
2024-03-02T00:46:20.779Z,7.64
2024-03-02T00:48:55.406Z,7.82
2024-03-02T00:51:23.174Z,7.80
2024-03-02T00:53:50.067Z,7.78
2024-03-02T00:56:17.236Z,7.60
2024-03-02T00:58:43.889Z,7.60
2024-03-02T01:01:10.721Z,7.78
2024-03-02T01:03:37.413Z,7.80
2024-03-02T01:06:05.776Z,7.96
2024-03-02T01:08:32.423Z,7.96
2024-03-02T01:10:59.066Z,8.07
2024-03-02T01:13:25.926Z,7.80
2024-03-02T01:15:52.617Z,7.98
2024-03-02T01:18:19.377Z,7.84
2024-03-02T01:20:46.033Z,7.99
2024-03-02T01:23:14.128Z,8.00
2024-03-02T01:25:42.295Z,8.08
2024-03-02T01:28:08.935Z,8.15
2024-03-02T01:30:35.570Z,8.21
2024-03-02T01:33:02.331Z,8.18
2024-03-02T01:35:28.977Z,8.09
2024-03-02T01:37:55.596Z,7.60
2024-03-02T01:40:23.560Z,7.70
2024-03-02T01:42:50.284Z,7.81
2024-03-02T01:45:17.145Z,7.62
2024-03-02T01:47:43.924Z,7.81
2024-03-02T01:50:12.677Z,7.76
2024-03-02T01:52:39.299Z,7.72
2024-03-02T01:55:06.787Z,7.78
2024-03-02T01:57:37.754Z,7.80
2024-03-02T02:00:05.464Z,7.73
2024-03-02T02:02:32.209Z,7.87
2024-03-02T02:04:58.843Z,7.88
2024-03-02T02:07:25.495Z,7.86
2024-03-02T02:09:52.202Z,7.83
2024-03-02T02:12:18.975Z,7.73
2024-03-02T02:14:50.250Z,7.90
2024-03-02T02:17:17.036Z,7.84
2024-03-02T02:19:43.749Z,7.74
2024-03-02T02:22:12.087Z,7.80
2024-03-02T02:24:41.367Z,7.79
2024-03-02T02:27:08.458Z,7.66
2024-03-02T02:29:35.569Z,7.60
2024-03-02T02:32:02.448Z,7.65
2024-03-02T02:34:29.320Z,7.51
2024-03-02T02:36:56.343Z,7.59
2024-03-02T02:39:24.534Z,7.66
2024-03-02T02:41:51.293Z,7.68
2024-03-02T02:44:18.003Z,7.72
2024-03-02T02:46:47.174Z,7.58
2024-03-02T02:49:13.851Z,7.69
2024-03-02T02:51:40.641Z,7.68
2024-03-02T02:54:07.402Z,7.75
2024-03-02T02:56:37.619Z,7.75
2024-03-02T02:59:04.400Z,7.78
2024-03-02T03:01:31.264Z,7.89
2024-03-02T03:03:58.294Z,7.95
2024-03-02T03:06:25.023Z,7.90
2024-03-02T03:08:51.733Z,7.93
2024-03-02T03:11:18.552Z,7.94
2024-03-02T03:13:46.668Z,8.01
2024-03-02T03:16:13.430Z,7.99
2024-03-02T03:18:40.164Z,8.03
2024-03-02T03:21:06.916Z,7.92
2024-03-02T03:23:33.623Z,8.01
2024-03-02T03:26:00.537Z,8.10
2024-03-02T03:28:27.215Z,8.05
2024-03-02T03:30:55.333Z,8.11
2024-03-02T03:33:22.238Z,8.14
2024-03-02T03:35:48.926Z,8.06
2024-03-02T03:38:15.617Z,8.11
2024-03-02T03:40:42.479Z,8.13
2024-03-02T03:43:12.221Z,8.22
2024-03-02T03:45:39.002Z,8.21
2024-03-02T03:48:07.741Z,8.11
2024-03-02T03:50:34.545Z,8.14
2024-03-02T03:53:01.217Z,8.15
2024-03-02T03:55:27.998Z,8.30
2024-03-02T03:57:54.765Z,8.33
2024-03-02T04:00:21.585Z,8.24
2024-03-02T04:02:48.345Z,8.33
2024-03-02T04:05:16.528Z,8.19
2024-03-02T04:07:43.296Z,8.28
2024-03-02T04:10:11.131Z,8.33
2024-03-02T04:12:38.036Z,8.42
2024-03-02T04:15:06.382Z,8.35
2024-03-02T04:17:34.356Z,8.42
2024-03-02T04:20:01.108Z,8.51
2024-03-02T04:22:29.524Z,8.33
2024-03-02T04:24:56.323Z,8.39
2024-03-02T04:27:23.094Z,8.37
2024-03-02T04:29:50.034Z,8.18
2024-03-02T04:32:19.012Z,8.19
2024-03-02T04:34:48.192Z,8.12
2024-03-02T04:37:15.066Z,8.09
2024-03-02T04:39:43.214Z,8.20
2024-03-02T04:42:10.020Z,8.19
2024-03-02T04:44:36.756Z,8.25
2024-03-02T04:47:03.777Z,8.12
2024-03-02T04:49:30.625Z,8.23
2024-03-02T04:51:57.531Z,8.26
2024-03-02T04:54:24.247Z,8.22
2024-03-02T04:56:52.472Z,8.15
2024-03-02T04:59:19.582Z,8.22
2024-03-02T05:01:46.792Z,8.17
2024-03-02T05:04:13.520Z,8.17
2024-03-02T05:06:40.685Z,8.32
2024-03-02T05:09:07.468Z,8.21
2024-03-02T05:11:34.566Z,8.10
2024-03-02T05:14:02.658Z,8.10
2024-03-02T05:16:29.356Z,8.19
2024-03-02T05:18:56.067Z,8.36
2024-03-02T05:21:22.826Z,8.44
2024-03-02T05:23:49.494Z,8.29
2024-03-02T05:26:19.188Z,8.43
2024-03-02T05:28:45.855Z,8.47
2024-03-02T05:31:16.169Z,8.35
2024-03-02T05:33:43.079Z,8.50
2024-03-02T05:36:10.533Z,8.51
2024-03-02T05:38:37.827Z,8.47
2024-03-02T05:41:04.850Z,8.58
2024-03-02T05:43:31.523Z,8.57
2024-03-02T05:45:58.331Z,8.68
2024-03-02T05:48:26.509Z,8.46
2024-03-02T05:50:53.187Z,8.48
2024-03-02T05:53:19.920Z,8.51
2024-03-02T05:55:46.657Z,8.43
2024-03-02T05:58:13.391Z,8.43
2024-03-02T06:00:40.159Z,8.55
2024-03-02T06:03:06.879Z,8.56
2024-03-02T06:05:34.931Z,8.58
2024-03-02T06:08:01.614Z,8.80
2024-03-02T06:10:28.337Z,8.77
2024-03-02T06:12:55.099Z,8.77
2024-03-02T06:15:21.875Z,8.71
2024-03-02T06:17:48.703Z,8.84
2024-03-02T06:20:15.526Z,8.82
2024-03-02T06:22:43.563Z,8.80
2024-03-02T06:25:10.319Z,8.82
2024-03-02T06:27:37.095Z,8.91
2024-03-02T06:30:04.448Z,8.87
2024-03-02T06:32:31.197Z,9.04
2024-03-02T06:34:57.881Z,9.08
2024-03-02T06:37:24.557Z,8.90
2024-03-02T06:39:54.985Z,8.91
2024-03-02T06:42:21.665Z,8.97
2024-03-02T06:44:48.450Z,9.06
2024-03-02T06:47:15.159Z,9.11
2024-03-02T06:49:41.810Z,9.17
2024-03-02T06:52:08.540Z,9.11
2024-03-02T06:54:35.251Z,9.15
2024-03-02T06:57:03.919Z,9.29
2024-03-02T06:59:30.609Z,9.34
2024-03-02T07:01:57.347Z,9.39
2024-03-02T07:04:24.083Z,9.42
2024-03-02T07:06:50.793Z,9.52
2024-03-02T07:09:17.607Z,9.50
2024-03-02T07:11:44.348Z,9.61
2024-03-02T07:14:12.385Z,9.64
2024-03-02T07:16:39.258Z,9.72
2024-03-02T07:19:06.061Z,9.71
2024-03-02T07:21:32.972Z,9.61
2024-03-02T07:23:59.729Z,9.61
2024-03-02T07:28:56.183Z,9.63
2024-03-02T07:31:24.398Z,9.79
2024-03-02T07:33:51.180Z,9.86
2024-03-02T07:36:18.099Z,9.88
2024-03-02T07:38:44.936Z,9.91
2024-03-02T07:41:11.758Z,9.70
2024-03-02T07:43:38.498Z,9.73
2024-03-02T07:46:05.584Z,9.75
2024-03-02T07:48:33.760Z,9.63
2024-03-02T07:51:00.486Z,9.71
2024-03-02T07:53:27.228Z,9.74
2024-03-02T07:55:54.038Z,9.89
2024-03-02T07:58:20.868Z,9.87
2024-03-02T08:00:48.023Z,9.81
2024-03-02T08:03:15.021Z,9.89
2024-03-02T08:05:43.139Z,9.97
2024-03-02T08:08:09.994Z,9.89
2024-03-02T08:10:36.696Z,10.05
2024-03-02T08:13:03.557Z,10.00
2024-03-02T08:15:30.341Z,10.16
2024-03-02T08:17:57.156Z,10.30
2024-03-02T08:20:24.133Z,10.34
2024-03-02T08:22:52.652Z,10.45
2024-03-02T08:25:19.374Z,10.43
2024-03-02T08:27:46.121Z,10.40
2024-03-02T08:30:13.833Z,10.45
2024-03-02T08:32:40.690Z,10.44
2024-03-02T08:38:39.006Z,10.27
2024-03-02T08:41:05.988Z,10.19
2024-03-02T08:43:32.666Z,10.34
2024-03-02T08:45:59.557Z,10.38
2024-03-02T08:48:26.386Z,10.38
2024-03-02T08:50:53.132Z,10.51
2024-03-02T08:53:19.989Z,10.61
2024-03-02T08:55:48.225Z,10.68
2024-03-02T08:58:15.121Z,10.53
2024-03-02T09:00:42.455Z,10.55
2024-03-02T09:03:09.392Z,10.67
2024-03-02T09:05:36.117Z,10.86
2024-03-02T09:08:02.864Z,10.92
2024-03-02T09:10:29.574Z,11.06
2024-03-02T09:12:57.963Z,11.11
2024-03-02T09:15:24.712Z,11.32
2024-03-02T09:17:51.546Z,11.50
2024-03-02T09:20:18.289Z,11.14
2024-03-02T09:22:45.041Z,11.34
2024-03-02T09:25:11.775Z,11.41
2024-03-02T09:27:38.548Z,11.54
2024-03-02T09:30:09.634Z,11.45
2024-03-02T09:32:36.505Z,11.58
2024-03-02T09:35:03.432Z,11.70
2024-03-02T09:37:30.243Z,11.79
2024-03-02T09:39:57.023Z,11.91
2024-03-02T09:42:25.647Z,11.99
2024-03-02T09:44:52.653Z,12.08
2024-03-02T09:47:20.739Z,12.14
2024-03-02T09:49:47.624Z,12.13
2024-03-02T09:52:14.645Z,11.96
2024-03-02T09:54:41.474Z,12.29
2024-03-02T09:57:08.289Z,12.37
2024-03-02T09:59:34.989Z,12.43
2024-03-02T10:02:03.076Z,12.49
2024-03-02T10:04:31.695Z,12.26
2024-03-02T10:07:12.296Z,12.29
2024-03-02T10:09:39.474Z,12.39
2024-03-02T10:12:07.885Z,12.24
2024-03-02T10:14:34.903Z,12.00
2024-03-02T10:17:06.014Z,11.91
2024-03-02T10:19:34.512Z,11.97
2024-03-02T10:22:04.543Z,12.19
2024-03-02T10:24:37.485Z,12.17
2024-03-02T10:27:09.694Z,12.25
2024-03-02T10:29:38.812Z,12.43
2024-03-02T10:32:05.840Z,12.44
2024-03-02T10:34:34.219Z,12.70
2024-03-02T10:37:02.408Z,12.60
2024-03-02T10:39:29.830Z,12.50
2024-03-02T10:41:57.294Z,12.68
2024-03-02T10:44:24.290Z,12.84
2024-03-02T10:46:51.168Z,12.90
2024-03-02T10:49:18.183Z,12.70
2024-03-02T10:51:46.445Z,12.79
2024-03-02T10:54:13.307Z,12.86
2024-03-02T10:56:41.257Z,12.64
2024-03-02T10:59:27.581Z,12.62
2024-03-02T11:01:59.300Z,12.90
2024-03-02T11:04:28.011Z,13.03
2024-03-02T11:07:01.551Z,13.18
2024-03-02T11:09:29.396Z,13.23
2024-03-02T11:12:03.421Z,13.22
2024-03-02T11:14:32.662Z,13.11
2024-03-02T11:17:01.122Z,13.20
2024-03-02T11:19:28.856Z,13.06
2024-03-02T11:21:57.524Z,13.09
2024-03-02T11:24:31.470Z,13.19
2024-03-02T11:26:58.635Z,13.25
2024-03-02T11:29:46.640Z,13.37
2024-03-02T11:32:17.282Z,13.16
2024-03-02T11:34:46.757Z,13.33
2024-03-02T11:37:15.616Z,13.31
2024-03-02T11:39:44.005Z,12.97
2024-03-02T11:42:12.617Z,13.39
2024-03-02T11:44:40.516Z,13.74
2024-03-02T11:47:09.302Z,13.76
2024-03-02T11:49:40.475Z,13.91
2024-03-02T11:52:08.280Z,14.23
2024-03-02T11:54:38.201Z,14.39
2024-03-02T11:57:05.644Z,14.54
2024-03-02T11:59:32.530Z,14.45
2024-03-02T12:02:00.249Z,14.59
2024-03-02T12:04:27.651Z,15.07
2024-03-02T12:06:58.418Z,15.27
2024-03-02T12:09:25.505Z,15.12
2024-03-02T12:12:05.001Z,15.73
2024-03-02T12:14:32.124Z,15.74
2024-03-02T12:16:58.903Z,15.53
2024-03-02T12:19:25.948Z,14.62
2024-03-02T12:21:53.089Z,14.19
2024-03-02T12:24:22.025Z,14.67
2024-03-02T12:26:49.484Z,14.90
2024-03-02T12:29:17.724Z,15.00
2024-03-02T12:31:44.516Z,15.30
2024-03-02T12:34:12.708Z,15.19
2024-03-02T12:36:39.680Z,14.90
2024-03-02T12:39:06.477Z,15.28
2024-03-02T12:41:33.238Z,15.43
2024-03-02T12:43:59.937Z,15.75
2024-03-02T12:46:28.274Z,15.85
2024-03-02T12:48:55.312Z,15.99
2024-03-02T12:51:22.161Z,15.83
2024-03-02T12:53:54.679Z,15.70
2024-03-02T12:56:21.428Z,15.41
2024-03-02T12:58:48.246Z,15.60
2024-03-02T13:01:16.588Z,15.51
2024-03-02T13:03:44.816Z,15.56
2024-03-02T13:06:12.271Z,14.96
2024-03-02T13:08:39.675Z,15.07
2024-03-02T13:11:06.519Z,15.13
2024-03-02T13:13:33.927Z,15.01
2024-03-02T13:16:01.485Z,14.91
2024-03-02T13:18:30.404Z,15.09
2024-03-02T13:20:58.552Z,15.34
2024-03-02T13:23:25.269Z,15.04
2024-03-02T13:25:52.012Z,14.80
2024-03-02T13:28:18.766Z,14.59
2024-03-02T13:30:45.746Z,14.43
2024-03-02T13:33:12.500Z,14.57
2024-03-02T13:35:39.195Z,14.69
2024-03-02T13:38:07.329Z,14.66
2024-03-02T13:40:34.083Z,14.53
2024-03-02T13:43:00.871Z,14.65
2024-03-02T13:45:27.649Z,14.62
2024-03-02T13:47:54.603Z,14.26
2024-03-02T13:50:21.524Z,13.94
2024-03-02T13:52:48.187Z,14.13
2024-03-02T13:55:16.405Z,13.79
2024-03-02T13:57:43.122Z,13.26
2024-03-02T14:00:10.748Z,13.38
2024-03-02T14:02:37.636Z,13.62
2024-03-02T14:05:05.047Z,13.75
2024-03-02T14:07:31.748Z,13.41
2024-03-02T14:09:58.465Z,12.98
2024-03-02T14:12:26.548Z,13.16
2024-03-02T14:14:53.235Z,13.17
2024-03-02T14:17:20.080Z,13.45
2024-03-02T14:19:46.774Z,13.56
2024-03-02T14:22:13.533Z,13.90
2024-03-02T14:24:40.429Z,13.55
2024-03-02T14:27:15.410Z,13.93
2024-03-02T14:29:53.396Z,13.93
2024-03-02T14:32:20.089Z,13.76
2024-03-02T14:34:46.953Z,13.85
2024-03-02T14:37:14.042Z,13.72
2024-03-02T14:39:40.963Z,13.52
2024-03-02T14:42:07.715Z,13.50
2024-03-02T14:44:34.925Z,13.81
2024-03-02T14:47:03.902Z,13.53
2024-03-02T14:49:31.286Z,13.66
2024-03-02T14:51:58.008Z,13.40
2024-03-02T14:54:24.756Z,13.35
2024-03-02T14:56:51.548Z,13.61
2024-03-02T14:59:18.340Z,13.89
2024-03-02T15:01:45.353Z,13.86
2024-03-02T15:04:13.591Z,14.05
2024-03-02T15:06:40.605Z,14.09
2024-03-02T15:09:08.011Z,14.13
2024-03-02T15:11:36.046Z,14.00
2024-03-02T15:14:02.853Z,14.10
2024-03-02T15:16:29.989Z,14.24
2024-03-02T15:18:56.802Z,13.39
2024-03-02T15:21:25.030Z,13.73
2024-03-02T15:23:51.745Z,13.56
2024-03-02T15:26:18.766Z,13.32
2024-03-02T15:28:45.779Z,13.48
2024-03-02T15:31:12.508Z,13.21
2024-03-02T15:33:39.612Z,13.35
2024-03-02T15:36:07.144Z,13.33
2024-03-02T15:38:36.442Z,13.43
2024-03-02T15:41:05.125Z,13.67
2024-03-02T15:43:31.823Z,13.45
2024-03-02T15:45:58.690Z,13.21
2024-03-02T15:48:25.499Z,13.48
2024-03-02T15:50:52.250Z,13.18
2024-03-02T15:53:19.009Z,13.33
2024-03-02T15:55:47.037Z,13.27
2024-03-02T15:58:13.913Z,13.27
2024-03-02T16:00:40.745Z,13.30
2024-03-02T16:03:07.731Z,12.90
2024-03-02T16:05:34.408Z,12.93
2024-03-02T16:08:01.121Z,13.14
2024-03-02T16:10:27.831Z,12.75
2024-03-02T16:12:55.956Z,12.74
2024-03-02T16:15:22.670Z,12.87
2024-03-02T16:17:49.365Z,12.93
2024-03-02T16:20:16.295Z,13.12
2024-03-02T16:22:43.042Z,13.16
2024-03-02T16:25:10.022Z,13.06
2024-03-02T16:27:36.788Z,12.85
2024-03-02T16:30:06.320Z,12.73
2024-03-02T16:32:33.080Z,12.65
2024-03-02T16:34:59.862Z,12.86
2024-03-02T16:37:26.670Z,12.72
2024-03-02T16:39:53.630Z,12.77
2024-03-02T16:42:36.494Z,12.59
2024-03-02T16:45:05.607Z,12.64
2024-03-02T16:47:32.499Z,12.59
2024-03-02T16:50:00.549Z,12.65
2024-03-02T16:52:28.077Z,12.60
2024-03-02T16:54:55.099Z,12.65
2024-03-02T16:57:21.814Z,12.31
2024-03-02T16:59:48.512Z,12.51
2024-03-02T17:02:16.798Z,12.67
2024-03-02T17:04:44.009Z,12.59
2024-03-02T17:07:10.736Z,12.41
2024-03-02T17:09:37.481Z,12.30
2024-03-02T17:12:04.752Z,12.53
2024-03-02T17:14:31.409Z,12.48
2024-03-02T17:16:58.090Z,12.17
2024-03-02T17:19:26.155Z,12.36
2024-03-02T17:21:52.841Z,12.26
2024-03-02T17:24:19.580Z,12.14
2024-03-02T17:26:46.245Z,12.25
2024-03-02T17:29:12.940Z,12.10
2024-03-02T17:31:39.811Z,12.07
2024-03-02T17:34:06.625Z,12.17
2024-03-02T17:36:34.730Z,11.94
2024-03-02T17:39:01.451Z,11.98
2024-03-02T17:41:28.174Z,12.03
2024-03-02T17:43:55.012Z,12.09
2024-03-02T17:46:21.827Z,11.75
2024-03-02T17:48:48.624Z,11.87
2024-03-02T17:51:16.686Z,11.80
2024-03-02T17:53:44.817Z,11.83
2024-03-02T17:56:11.898Z,11.81
2024-03-02T17:58:38.656Z,11.79
2024-03-02T18:01:05.503Z,11.86
2024-03-02T18:03:32.352Z,11.58
2024-03-02T18:05:59.082Z,11.75
2024-03-02T18:08:25.807Z,11.93
2024-03-02T18:10:53.900Z,11.94
2024-03-02T18:13:20.706Z,11.84
2024-03-02T18:15:50.241Z,11.85
2024-03-02T18:18:18.273Z,11.80
2024-03-02T18:20:45.036Z,11.72
2024-03-02T18:23:11.820Z,11.75
2024-03-02T18:25:38.524Z,11.68
2024-03-02T18:28:07.515Z,11.60
2024-03-02T18:30:34.260Z,11.64
2024-03-02T18:33:01.044Z,11.57
2024-03-02T18:35:27.913Z,11.34
2024-03-02T18:37:54.779Z,11.50
2024-03-02T18:40:21.776Z,11.51
2024-03-02T18:42:48.633Z,11.31
2024-03-02T18:45:16.814Z,11.32
2024-03-02T18:47:45.530Z,11.32
2024-03-02T18:50:12.351Z,11.31
2024-03-02T18:52:39.228Z,11.23
2024-03-02T18:55:06.719Z,11.22
2024-03-02T18:57:33.530Z,11.14
2024-03-02T19:00:00.338Z,11.06
2024-03-02T19:02:28.470Z,11.02
2024-03-02T19:04:55.315Z,11.08
2024-03-02T19:07:22.030Z,10.95
2024-03-02T19:09:48.944Z,11.17
2024-03-02T19:12:15.639Z,11.20
2024-03-02T19:14:42.395Z,11.18
2024-03-02T19:17:09.101Z,11.15
2024-03-02T19:19:37.316Z,11.07
2024-03-02T19:22:08.353Z,10.99
2024-03-02T19:24:38.756Z,10.88
2024-03-02T19:27:06.312Z,10.53
2024-03-02T19:29:33.262Z,10.38
2024-03-02T19:32:05.132Z,10.38
2024-03-02T19:34:34.864Z,10.51
2024-03-02T19:37:03.202Z,10.63
2024-03-02T19:39:29.920Z,10.69
2024-03-02T19:41:56.881Z,10.73
2024-03-02T19:44:23.649Z,10.70
2024-03-02T19:46:50.348Z,10.83
2024-03-02T19:49:17.136Z,10.71
2024-03-02T19:51:43.916Z,10.28
2024-03-02T19:54:12.002Z,10.06
2024-03-02T19:56:38.987Z,10.01
2024-03-02T19:59:05.717Z,10.13
2024-03-02T20:01:32.484Z,10.30
2024-03-02T20:03:59.340Z,10.17
2024-03-02T20:06:26.063Z,10.17
2024-03-02T20:08:52.857Z,10.25
2024-03-02T20:11:20.968Z,9.98
2024-03-02T20:13:47.657Z,9.82
2024-03-02T20:16:14.525Z,9.78
2024-03-02T20:18:41.533Z,9.83
2024-03-02T20:21:08.237Z,9.90
2024-03-02T20:23:34.965Z,9.80
2024-03-02T20:26:01.868Z,9.63
2024-03-02T20:28:29.976Z,9.59
2024-03-02T20:30:56.702Z,9.66
2024-03-02T20:33:23.456Z,9.77
2024-03-02T20:35:50.375Z,9.90
2024-03-02T20:38:17.071Z,9.80
2024-03-02T20:40:43.984Z,9.75
2024-03-02T20:43:11.352Z,9.83
2024-03-02T20:45:39.664Z,9.96
2024-03-02T20:48:07.436Z,10.01
2024-03-02T20:50:34.098Z,10.10
2024-03-02T20:53:00.815Z,9.96
2024-03-02T20:55:27.677Z,9.81
2024-03-02T20:57:54.450Z,9.87
2024-03-02T21:00:21.396Z,9.93
2024-03-02T21:02:49.598Z,9.95
2024-03-02T21:05:16.314Z,9.83
2024-03-02T21:07:43.034Z,9.90
2024-03-02T21:10:10.504Z,9.91
2024-03-02T21:12:37.275Z,9.86
2024-03-02T21:15:04.816Z,9.84
2024-03-02T21:17:31.533Z,9.84
2024-03-02T21:19:59.660Z,9.76
2024-03-02T21:22:26.370Z,9.75
2024-03-02T21:24:53.089Z,9.57
2024-03-02T21:27:21.289Z,9.47
2024-03-02T21:29:48.211Z,9.46
2024-03-02T21:32:14.961Z,9.45
2024-03-02T21:34:41.781Z,9.43
2024-03-02T21:37:09.910Z,9.44
2024-03-02T21:39:42.887Z,9.53
2024-03-02T21:42:13.636Z,9.50
2024-03-02T21:44:40.357Z,9.54
2024-03-02T21:47:07.617Z,9.53
2024-03-02T21:49:34.557Z,9.59
2024-03-02T21:52:01.284Z,9.59
2024-03-02T21:54:29.336Z,9.54
2024-03-02T21:56:56.124Z,9.42
2024-03-02T21:59:22.888Z,9.25
2024-03-02T22:01:49.694Z,9.25
2024-03-02T22:04:16.525Z,9.40
2024-03-02T22:06:43.273Z,9.34
2024-03-02T22:09:10.012Z,9.35
2024-03-02T22:11:38.095Z,9.29
2024-03-02T22:14:04.792Z,9.28
2024-03-02T22:16:31.590Z,9.15
2024-03-02T22:18:58.329Z,8.97
2024-03-02T22:21:25.124Z,8.90
2024-03-02T22:23:51.799Z,8.99
2024-03-02T22:26:18.488Z,8.91
2024-03-02T22:28:46.575Z,8.98
2024-03-02T22:31:13.282Z,9.06
2024-03-02T22:33:40.125Z,8.96
2024-03-02T22:36:07.973Z,8.91
2024-03-02T22:38:34.697Z,8.89
2024-03-02T22:41:01.395Z,8.90
2024-03-02T22:43:28.133Z,8.95
2024-03-02T22:45:56.298Z,8.86
2024-03-02T22:48:23.315Z,8.88
2024-03-02T22:50:50.032Z,8.79
2024-03-02T22:53:16.754Z,8.93
2024-03-02T22:55:43.484Z,8.83
2024-03-02T22:58:10.578Z,8.83
2024-03-02T23:00:37.673Z,8.68
2024-03-02T23:03:05.982Z,8.44
2024-03-02T23:05:32.678Z,8.49
2024-03-02T23:07:59.421Z,8.59
2024-03-02T23:10:26.254Z,8.60
2024-03-02T23:12:53.013Z,8.49
2024-03-02T23:15:19.789Z,8.43
2024-03-02T23:17:46.464Z,8.41
2024-03-02T23:20:15.028Z,8.34
2024-03-02T23:22:41.703Z,8.31
2024-03-02T23:25:08.631Z,8.30
2024-03-02T23:27:35.451Z,8.20
2024-03-02T23:30:02.502Z,8.21
2024-03-02T23:32:29.258Z,8.23
2024-03-02T23:34:56.035Z,8.22
2024-03-02T23:37:24.212Z,8.22
2024-03-02T23:39:51.031Z,8.33
2024-03-02T23:42:17.894Z,8.19
2024-03-02T23:44:44.596Z,8.18
2024-03-02T23:47:11.290Z,8.22
2024-03-02T23:49:38.021Z,8.20
2024-03-02T23:52:05.238Z,8.05
2024-03-02T23:54:33.331Z,8.14
2024-03-02T23:57:00.154Z,8.08
2024-03-02T23:59:26.859Z,7.99
